createdAt,value
2019-03-16T00:01:00.410Z,6.90
2019-03-16T00:03:45.178Z,6.90
2019-03-16T00:06:29.512Z,6.90
2019-03-16T00:09:13.246Z,6.90
2019-03-16T00:11:56.896Z,6.90
2019-03-16T00:14:29.375Z,6.90
2019-03-16T00:17:23.306Z,6.90
2019-03-16T00:19:59.498Z,6.90
2019-03-16T00:22:43.711Z,6.90
2019-03-16T00:25:28.855Z,6.90
2019-03-16T00:28:13.291Z,6.90
2019-03-16T00:30:56.807Z,6.90
2019-03-16T00:33:40.488Z,6.90
2019-03-16T00:36:24.581Z,6.80
2019-03-16T00:39:09.480Z,6.80
2019-03-16T00:41:54.815Z,6.80
2019-03-16T00:44:38.395Z,6.80
2019-03-16T00:47:22.951Z,6.80
2019-03-16T00:50:07.380Z,6.80
2019-03-16T00:52:50.981Z,6.80
2019-03-16T00:55:35.450Z,6.80
2019-03-16T00:58:19.764Z,6.80
2019-03-16T01:01:05.124Z,6.90
2019-03-16T01:03:48.714Z,6.90
2019-03-16T01:06:32.587Z,6.90
2019-03-16T01:09:16.487Z,6.90
2019-03-16T01:11:48.727Z,6.90
2019-03-16T01:14:34.392Z,6.90
2019-03-16T01:17:18.756Z,6.90
2019-03-16T01:20:03.692Z,6.90
2019-03-16T01:22:35.847Z,6.80
2019-03-16T01:25:19.408Z,6.80
2019-03-16T01:28:02.977Z,6.80
2019-03-16T01:30:46.596Z,6.80
2019-03-16T01:33:30.825Z,6.80
2019-03-16T01:36:03.044Z,6.90
2019-03-16T01:38:47.458Z,6.90
2019-03-16T01:41:32.506Z,6.90
2019-03-16T01:44:18.308Z,6.90
2019-03-16T01:46:50.504Z,6.90
2019-03-16T01:49:34.777Z,6.90
2019-03-16T01:52:19.728Z,6.90
2019-03-16T01:55:04.043Z,6.90
2019-03-16T01:57:47.984Z,6.90
2019-03-16T02:00:32.364Z,6.90
2019-03-16T02:03:17.443Z,6.90
2019-03-16T02:06:00.965Z,6.80
2019-03-16T02:08:33.627Z,6.80
2019-03-16T02:11:17.656Z,6.90
2019-03-16T02:14:02.907Z,6.80
2019-03-16T02:19:50.049Z,6.80
2019-03-16T02:22:35.493Z,6.80
2019-03-16T02:25:19.498Z,6.80
2019-03-16T02:28:04.099Z,6.70
2019-03-16T02:30:48.527Z,6.70
2019-03-16T02:36:17.099Z,6.70
2019-03-16T02:39:01.702Z,6.70
2019-03-16T02:41:47.172Z,6.70
2019-03-16T02:44:30.871Z,6.60
2019-03-16T02:49:59.035Z,6.70
2019-03-16T02:52:43.278Z,6.70
2019-03-16T02:55:27.380Z,6.70
2019-03-16T02:57:59.944Z,6.70
2019-03-16T03:00:45.487Z,6.70
2019-03-16T03:03:30.342Z,6.70
2019-03-16T03:06:14.542Z,6.70
2019-03-16T03:08:58.845Z,6.70
2019-03-16T03:11:46.813Z,6.70
2019-03-16T03:14:31.905Z,6.60
2019-03-16T03:17:16.348Z,6.70
2019-03-16T03:19:49.334Z,6.70
2019-03-16T03:22:33.634Z,6.70
2019-03-16T03:25:17.805Z,6.70
2019-03-16T03:28:02.517Z,6.60
2019-03-16T03:30:47.891Z,6.60
2019-03-16T03:33:57.573Z,6.60
2019-03-16T03:36:18.879Z,6.60
2019-03-16T03:39:03.278Z,6.60
2019-03-16T03:41:47.919Z,6.60
2019-03-16T03:44:33.014Z,6.60
2019-03-16T03:47:18.221Z,6.60
2019-03-16T03:50:04.720Z,6.60
2019-03-16T03:52:49.600Z,6.60
2019-03-16T03:55:33.340Z,6.60
2019-03-16T03:58:16.953Z,6.60
2019-03-16T04:01:00.841Z,6.60
2019-03-16T04:03:46.351Z,6.60
2019-03-16T04:06:30.645Z,6.60
2019-03-16T04:09:14.633Z,6.60
2019-03-16T04:11:58.131Z,6.70
2019-03-16T04:14:43.810Z,6.60
2019-03-16T04:17:17.141Z,6.60
2019-03-16T04:19:49.880Z,6.60
2019-03-16T04:28:43.152Z,6.60
2019-03-16T04:31:26.709Z,6.60
2019-03-16T04:34:11.889Z,6.60
2019-03-16T04:36:56.824Z,6.60
2019-03-16T04:39:41.738Z,6.60
2019-03-16T04:42:26.287Z,6.60
2019-03-16T04:45:11.447Z,6.60
2019-03-16T04:47:54.985Z,6.60
2019-03-16T04:50:39.081Z,6.60
2019-03-16T04:53:11.278Z,6.60
2019-03-16T04:55:55.587Z,6.60
2019-03-16T04:58:39.476Z,6.60
2019-03-16T05:01:25.094Z,6.60
2019-03-16T05:04:09.121Z,6.60
2019-03-16T05:06:55.288Z,6.60
2019-03-16T05:09:41.038Z,6.60
2019-03-16T05:12:24.779Z,6.60
2019-03-16T05:15:09.639Z,6.60
2019-03-16T05:17:55.606Z,6.60
2019-03-16T05:20:39.423Z,6.60
2019-03-16T05:23:23.001Z,6.50
2019-03-16T05:26:06.854Z,6.50
2019-03-16T05:28:50.435Z,6.50
2019-03-16T05:31:34.823Z,6.50
2019-03-16T05:34:18.850Z,6.50
2019-03-16T05:37:03.259Z,6.50
2019-03-16T05:39:47.351Z,6.50
2019-03-16T05:42:32.695Z,6.50
2019-03-16T05:45:20.176Z,6.50
2019-03-16T05:48:04.724Z,6.50
2019-03-16T05:50:53.892Z,6.50
2019-03-16T05:53:38.575Z,6.40
2019-03-16T05:56:12.092Z,6.50
2019-03-16T06:02:01.956Z,6.40
2019-03-16T06:04:46.578Z,6.40
2019-03-16T06:07:30.850Z,6.40
2019-03-16T06:10:15.598Z,6.40
2019-03-16T06:13:03.555Z,6.50
2019-03-16T06:15:36.036Z,6.50
2019-03-16T06:18:26.871Z,6.50
2019-03-16T06:21:32.976Z,6.60
2019-03-16T06:24:21.297Z,6.50
2019-03-16T06:27:06.389Z,6.50
2019-03-16T06:29:50.663Z,6.50
2019-03-16T06:32:34.407Z,6.60
2019-03-16T06:35:24.898Z,6.70
2019-03-16T06:38:04.108Z,6.70
2019-03-16T06:40:48.086Z,6.70
2019-03-16T06:43:33.633Z,6.70
2019-03-16T06:46:17.779Z,6.80
2019-03-16T06:49:02.142Z,6.70
2019-03-16T06:51:46.409Z,6.80
2019-03-16T06:54:30.769Z,6.70
2019-03-16T06:57:14.967Z,6.70
2019-03-16T06:59:59.415Z,6.80
2019-03-16T07:02:43.362Z,6.80
2019-03-16T07:05:38.408Z,6.80
2019-03-16T07:08:29.681Z,6.80
2019-03-16T07:11:13.689Z,6.80
2019-03-16T07:13:57.954Z,6.90
2019-03-16T07:16:42.008Z,6.90
2019-03-16T07:22:08.989Z,6.90
2019-03-16T07:24:58.891Z,7.00
2019-03-16T07:27:31.605Z,7.00
2019-03-16T07:30:16.087Z,7.00
2019-03-16T07:32:59.893Z,7.10
2019-03-16T07:38:28.484Z,7.10
2019-03-16T07:41:12.652Z,7.90
2019-03-16T07:43:44.884Z,7.90
2019-03-16T07:46:28.870Z,7.60
2019-03-16T07:49:14.640Z,7.40
2019-03-16T07:51:58.311Z,7.40
2019-03-16T07:54:42.302Z,7.40
2019-03-16T07:57:39.556Z,7.40
2019-03-16T08:00:13.060Z,7.40
2019-03-16T08:02:58.161Z,7.40
2019-03-16T08:05:42.154Z,7.40
2019-03-16T08:08:28.532Z,7.50
2019-03-16T08:11:13.250Z,7.60
2019-03-16T08:13:56.740Z,7.60
2019-03-16T08:16:41.441Z,7.70
2019-03-16T08:19:25.489Z,7.70
2019-03-16T08:22:10.571Z,7.80
2019-03-16T08:24:59.074Z,7.70
2019-03-16T08:27:53.658Z,7.70
2019-03-16T08:30:29.539Z,7.70
2019-03-16T08:33:01.627Z,7.60
2019-03-16T08:35:45.468Z,7.70
2019-03-16T08:38:17.641Z,7.70
2019-03-16T08:41:03.508Z,7.70
2019-03-16T08:43:47.341Z,7.80
2019-03-16T08:46:32.741Z,7.80
2019-03-16T08:49:16.569Z,7.80
2019-03-16T08:52:00.531Z,7.90
2019-03-16T08:54:46.248Z,7.90
2019-03-16T08:57:30.376Z,7.90
2019-03-16T09:00:15.820Z,7.80
2019-03-16T09:02:59.482Z,7.70
2019-03-16T09:05:44.960Z,7.60
2019-03-16T09:08:29.424Z,7.40
2019-03-16T09:11:13.270Z,7.40
2019-03-16T09:13:57.180Z,7.40
2019-03-16T09:16:29.298Z,7.30
2019-03-16T09:19:13.929Z,7.40
2019-03-16T09:21:58.104Z,7.40
2019-03-16T09:24:42.643Z,7.30
2019-03-16T09:27:31.382Z,7.30
2019-03-16T09:30:15.642Z,7.30
2019-03-16T09:32:59.990Z,7.30
2019-03-16T09:35:44.683Z,7.30
2019-03-16T09:38:29.363Z,7.20
2019-03-16T09:41:13.988Z,7.20
2019-03-16T09:43:58.273Z,7.30
2019-03-16T09:46:43.838Z,7.30
2019-03-16T09:49:28.078Z,7.30
2019-03-16T09:52:16.045Z,7.30
2019-03-16T09:55:01.340Z,7.30
2019-03-16T09:57:46.107Z,7.30
2019-03-16T10:00:30.361Z,7.40
2019-03-16T10:03:16.914Z,7.50
2019-03-16T10:06:01.324Z,7.90
2019-03-16T10:08:45.665Z,7.80
2019-03-16T10:11:29.894Z,7.60
2019-03-16T10:14:02.092Z,7.70
2019-03-16T10:16:59.731Z,7.70
2019-03-16T10:19:31.962Z,7.70
2019-03-16T10:22:15.424Z,7.60
2019-03-16T10:24:59.230Z,7.60
2019-03-16T10:27:42.680Z,7.50
2019-03-16T10:30:29.186Z,7.50
2019-03-16T10:33:13.554Z,7.40
2019-03-16T10:35:57.438Z,7.20
2019-03-16T10:38:41.795Z,7.00
2019-03-16T10:41:25.672Z,7.00
2019-03-16T10:44:09.134Z,7.00
2019-03-16T10:46:55.094Z,6.90
2019-03-16T10:49:39.586Z,7.10
2019-03-16T10:52:23.599Z,7.10
2019-03-16T10:55:07.716Z,7.10
2019-03-16T10:57:52.152Z,7.00
2019-03-16T11:00:35.831Z,6.80
2019-03-16T11:03:20.065Z,6.60
2019-03-16T11:06:05.425Z,6.60
2019-03-16T11:08:48.815Z,6.50
2019-03-16T11:11:21.052Z,6.50
2019-03-16T11:14:07.085Z,6.50
2019-03-16T11:16:51.393Z,6.30
2019-03-16T11:19:35.672Z,6.50
2019-03-16T11:22:19.455Z,6.40
2019-03-16T11:25:03.645Z,6.40
2019-03-16T11:30:51.682Z,6.60
2019-03-16T11:33:37.370Z,6.40
2019-03-16T11:39:40.477Z,6.30
2019-03-16T11:42:24.994Z,6.40
2019-03-16T11:48:18.229Z,6.60
2019-03-16T11:57:21.479Z,6.60
2019-03-16T12:06:28.067Z,6.50
2019-03-16T12:15:27.765Z,6.50
2019-03-16T12:24:38.848Z,6.50
2019-03-16T12:27:11.057Z,6.40
2019-03-16T12:33:05.649Z,6.40
2019-03-16T12:35:37.871Z,6.40
2019-03-16T12:38:22.062Z,6.40
2019-03-16T12:41:05.717Z,6.40
2019-03-16T12:43:49.634Z,6.40
2019-03-16T12:46:34.135Z,6.90
2019-03-16T12:49:17.951Z,6.70
2019-03-16T12:52:02.285Z,6.40
2019-03-16T12:54:46.668Z,6.40
2019-03-16T12:57:32.438Z,6.30
2019-03-16T13:00:16.857Z,6.20
2019-03-16T13:03:00.964Z,6.10
2019-03-16T13:05:45.367Z,6.10
2019-03-16T13:08:31.617Z,6.20
2019-03-16T13:11:16.382Z,6.30
2019-03-16T13:14:00.952Z,6.30
2019-03-16T13:16:48.695Z,6.30
2019-03-16T13:19:34.505Z,6.20
2019-03-16T13:22:18.030Z,6.40
2019-03-16T13:25:02.615Z,6.40
2019-03-16T13:27:46.618Z,6.50
2019-03-16T13:30:30.869Z,6.30
2019-03-16T13:33:03.196Z,6.40
2019-03-16T13:35:47.669Z,7.20
2019-03-16T13:38:31.261Z,7.20
2019-03-16T13:41:18.011Z,7.00
2019-03-16T13:47:19.761Z,6.80
2019-03-16T13:50:05.485Z,6.80
2019-03-16T13:52:49.667Z,6.70
2019-03-16T13:55:34.040Z,6.70
2019-03-16T13:58:18.035Z,6.70
2019-03-16T14:00:50.365Z,6.70
2019-03-16T14:03:47.982Z,6.80
2019-03-16T14:06:36.399Z,6.80
2019-03-16T14:09:21.178Z,6.80
2019-03-16T14:15:22.747Z,6.90
2019-03-16T14:21:15.513Z,6.90
2019-03-16T14:26:50.718Z,7.10
2019-03-16T14:29:35.964Z,7.10
2019-03-16T14:32:19.597Z,7.20
2019-03-16T14:35:03.846Z,7.20
2019-03-16T14:37:47.693Z,7.20
2019-03-16T14:40:32.348Z,7.30
2019-03-16T14:43:16.183Z,7.30
2019-03-16T14:46:00.559Z,7.40
2019-03-16T14:48:44.626Z,7.40
2019-03-16T14:51:32.618Z,7.50
2019-03-16T14:54:17.656Z,7.50
2019-03-16T14:57:02.079Z,7.60
2019-03-16T14:59:46.111Z,7.60
2019-03-16T15:02:30.936Z,7.80
2019-03-16T15:08:13.711Z,7.90
2019-03-16T15:10:57.815Z,8.00
2019-03-16T15:13:41.569Z,8.00
2019-03-16T15:16:26.143Z,8.10
2019-03-16T15:19:12.696Z,8.20
2019-03-16T15:21:57.718Z,8.20
2019-03-16T15:24:43.743Z,8.30
2019-03-16T15:27:34.103Z,8.40
2019-03-16T15:30:22.285Z,8.40
2019-03-16T15:32:55.051Z,8.50
2019-03-16T15:45:18.094Z,8.60
2019-03-16T15:51:16.455Z,8.60
2019-03-16T15:54:02.042Z,8.60
2019-03-16T16:03:09.278Z,8.70
2019-03-16T16:06:13.668Z,8.80
2019-03-16T16:12:10.834Z,8.80
2019-03-16T16:14:43.467Z,8.80
2019-03-16T16:20:38.104Z,8.80
2019-03-16T16:33:10.328Z,8.80
2019-03-16T16:35:55.826Z,8.80
2019-03-16T16:38:39.845Z,8.80
2019-03-16T16:44:29.099Z,8.80
2019-03-16T16:47:16.910Z,8.80
2019-03-16T16:50:07.122Z,8.80
2019-03-16T17:05:24.524Z,8.80
2019-03-16T17:08:08.702Z,8.90
2019-03-16T17:10:42.562Z,8.80
2019-03-16T17:16:43.852Z,8.90
2019-03-16T17:19:41.627Z,8.90
2019-03-16T17:22:32.100Z,8.90
2019-03-16T17:28:30.025Z,8.90
2019-03-16T17:31:14.145Z,8.90
2019-03-16T17:37:04.542Z,8.90
2019-03-16T17:43:05.684Z,9.00
2019-03-16T17:45:49.365Z,8.90
2019-03-16T17:51:52.393Z,9.00
2019-03-16T17:54:36.091Z,9.00
2019-03-16T17:57:20.381Z,8.90
2019-03-16T18:00:04.070Z,9.00
2019-03-16T18:02:52.641Z,8.90
2019-03-16T18:05:34.227Z,9.00
2019-03-16T18:08:18.492Z,9.00
2019-03-16T18:11:02.335Z,9.00
2019-03-16T18:13:34.620Z,9.00
2019-03-16T18:16:18.889Z,9.00
2019-03-16T18:19:02.953Z,9.00
2019-03-16T18:21:46.776Z,9.00
2019-03-16T18:24:31.035Z,9.00
2019-03-16T18:27:15.484Z,9.10
2019-03-16T18:29:59.570Z,9.10
2019-03-16T18:32:43.113Z,9.10
2019-03-16T18:35:28.575Z,9.10
2019-03-16T18:38:14.217Z,9.20
2019-03-16T18:40:58.135Z,9.20
2019-03-16T18:46:47.985Z,9.20
2019-03-16T18:52:16.019Z,9.20
2019-03-16T18:54:48.158Z,9.20
2019-03-16T19:00:49.249Z,9.30
2019-03-16T19:06:34.446Z,9.40
2019-03-16T19:09:20.706Z,9.40
2019-03-16T19:18:29.383Z,9.50
2019-03-16T19:27:31.277Z,9.50
2019-03-16T19:33:30.917Z,9.50
2019-03-16T19:39:26.519Z,9.50
2019-03-16T19:42:10.930Z,9.60
2019-03-16T19:44:55.393Z,9.50
2019-03-16T19:47:39.703Z,9.50
2019-03-16T19:50:23.662Z,9.60
2019-03-16T19:53:09.738Z,9.60
2019-03-16T19:55:54.244Z,9.60
2019-03-16T19:58:45.208Z,9.60
2019-03-16T20:01:29.987Z,9.70
2019-03-16T20:04:02.258Z,9.60
2019-03-16T20:06:46.294Z,9.60
2019-03-16T20:09:30.770Z,9.60
2019-03-16T20:12:14.527Z,9.60
2019-03-16T20:18:15.506Z,9.60
2019-03-16T20:20:59.905Z,9.70
2019-03-16T20:26:59.763Z,9.70
2019-03-16T20:29:43.653Z,9.70
2019-03-16T20:32:28.382Z,9.80
2019-03-16T20:35:12.062Z,9.80
2019-03-16T20:37:55.803Z,9.70
2019-03-16T20:40:40.071Z,9.80
2019-03-16T20:43:13.068Z,9.80
2019-03-16T20:45:57.377Z,9.80
2019-03-16T20:51:51.808Z,9.80
2019-03-16T20:54:36.329Z,9.80
2019-03-16T20:57:50.163Z,9.80
2019-03-16T21:00:39.766Z,9.80
2019-03-16T21:03:27.865Z,9.80
2019-03-16T21:06:12.817Z,9.80
2019-03-16T21:11:59.483Z,9.80
2019-03-16T21:14:44.074Z,9.80
2019-03-16T21:17:28.565Z,9.80
2019-03-16T21:20:12.595Z,9.80
2019-03-16T21:22:45.053Z,9.80
2019-03-16T21:28:35.002Z,9.90
2019-03-16T21:31:25.132Z,9.80
2019-03-16T21:34:09.380Z,9.80
2019-03-16T21:36:53.304Z,9.80
2019-03-16T21:39:40.385Z,9.80
2019-03-16T21:42:30.913Z,9.70
2019-03-16T21:45:15.455Z,9.80
2019-03-16T21:47:59.448Z,9.80
2019-03-16T21:50:44.022Z,9.80
2019-03-16T21:53:35.064Z,9.80
2019-03-16T22:08:46.809Z,9.80
2019-03-16T22:14:26.857Z,9.70
2019-03-16T22:17:17.524Z,9.70
2019-03-16T22:20:07.544Z,9.70
2019-03-16T22:22:52.377Z,9.70
2019-03-16T22:28:43.374Z,9.70
2019-03-16T22:31:27.848Z,9.70
2019-03-16T22:34:11.916Z,9.70
2019-03-16T22:37:01.790Z,9.70
2019-03-16T22:40:11.977Z,9.70
2019-03-16T22:55:40.826Z,9.90
2019-03-16T22:58:31.074Z,9.90
2019-03-16T23:08:05.877Z,9.80
2019-03-16T23:10:53.724Z,9.90
2019-03-16T23:23:12.057Z,9.90
2019-03-16T23:32:51.576Z,9.80
2019-03-16T23:39:20.659Z,9.90
2019-03-16T23:45:23.230Z,9.90
2019-03-16T23:55:08.110Z,9.90
